createdAt,value
2023-03-18T00:00:11.355Z,13.90
2023-03-18T00:02:38.914Z,13.90
2023-03-18T00:05:07.482Z,13.90
2023-03-18T00:07:36.182Z,13.80
2023-03-18T00:10:04.644Z,13.80
2023-03-18T00:12:32.790Z,13.80
2023-03-18T00:17:27.489Z,13.70
2023-03-18T00:19:55.068Z,13.70
2023-03-18T00:22:21.806Z,13.60
2023-03-18T00:24:49.054Z,13.60
2023-03-18T00:27:15.917Z,13.60
2023-03-18T00:29:42.791Z,13.60
2023-03-18T00:32:09.891Z,13.50
2023-03-18T00:34:36.614Z,13.50
2023-03-18T00:37:03.600Z,13.50
2023-03-18T00:39:32.938Z,13.40
2023-03-18T00:42:01.997Z,13.40
2023-03-18T00:44:28.741Z,13.40
2023-03-18T00:46:55.466Z,13.40
2023-03-18T00:49:22.121Z,13.30
2023-03-18T00:51:48.760Z,13.30
2023-03-18T00:54:18.120Z,13.30
2023-03-18T00:56:44.938Z,13.20
2023-03-18T00:59:11.908Z,13.20
2023-03-18T01:01:39.004Z,13.20
2023-03-18T01:04:06.498Z,13.10
2023-03-18T01:06:34.789Z,13.10
2023-03-18T01:09:02.655Z,13.10
2023-03-18T01:11:29.937Z,13.10
2023-03-18T01:13:56.873Z,13.00
2023-03-18T01:16:24.057Z,13.00
2023-03-18T01:18:52.276Z,13.00
2023-03-18T01:21:18.896Z,12.90
2023-03-18T01:23:45.599Z,12.90
2023-03-18T01:26:12.516Z,12.90
2023-03-18T01:28:39.498Z,13.00
2023-03-18T01:31:08.061Z,12.90
2023-03-18T01:33:37.703Z,12.90
2023-03-18T01:36:05.039Z,12.80
2023-03-18T01:38:31.861Z,12.80
2023-03-18T01:41:00.013Z,12.80
2023-03-18T01:43:31.997Z,12.80
2023-03-18T01:46:00.769Z,12.70
2023-03-18T01:48:30.933Z,12.70
2023-03-18T01:51:06.642Z,12.70
2023-03-18T01:53:42.659Z,12.70
2023-03-18T01:56:09.906Z,12.60
2023-03-18T01:58:40.461Z,12.60
2023-03-18T02:01:29.968Z,12.60
2023-03-18T02:03:56.663Z,12.60
2023-03-18T02:06:24.144Z,12.40
2023-03-18T02:08:50.796Z,12.60
2023-03-18T02:11:17.472Z,12.50
2023-03-18T02:13:46.185Z,12.50
2023-03-18T02:16:25.953Z,12.50
2023-03-18T02:18:56.620Z,12.40
2023-03-18T02:21:44.841Z,12.40
2023-03-18T02:24:43.423Z,12.40
2023-03-18T02:27:18.260Z,12.40
2023-03-18T02:32:14.313Z,12.40
2023-03-18T02:34:42.594Z,12.30
2023-03-18T02:37:09.256Z,12.30
2023-03-18T02:39:35.892Z,12.30
2023-03-18T02:42:02.901Z,12.30
2023-03-18T02:44:29.532Z,12.20
2023-03-18T02:46:59.371Z,12.20
2023-03-18T02:49:27.550Z,12.20
2023-03-18T02:51:54.975Z,12.20
2023-03-18T02:54:24.772Z,13.50
2023-03-18T02:56:51.853Z,15.70
2023-03-18T02:59:19.550Z,12.40
2023-03-18T03:01:49.789Z,12.10
2023-03-18T03:04:17.389Z,12.10
2023-03-18T03:06:44.799Z,12.10
2023-03-18T03:09:14.179Z,12.00
2023-03-18T03:11:41.391Z,14.20
2023-03-18T03:14:09.385Z,12.00
2023-03-18T03:16:36.998Z,12.00
2023-03-18T03:19:05.912Z,12.00
2023-03-18T03:21:33.456Z,12.00
2023-03-18T03:24:00.125Z,12.00
2023-03-18T03:26:27.242Z,12.00
2023-03-18T03:28:53.938Z,11.90
2023-03-18T03:31:20.737Z,11.90
2023-03-18T03:36:16.804Z,11.90
2023-03-18T03:38:43.646Z,11.90
2023-03-18T03:41:12.731Z,11.80
2023-03-18T03:43:40.329Z,11.80
2023-03-18T03:46:08.179Z,11.80
2023-03-18T03:48:34.923Z,11.70
2023-03-18T03:51:02.313Z,11.70
2023-03-18T03:53:29.016Z,11.70
2023-03-18T03:55:58.965Z,11.70
2023-03-18T03:58:27.668Z,11.60
2023-03-18T04:00:54.315Z,11.60
2023-03-18T04:03:20.930Z,11.60
2023-03-18T04:05:47.738Z,11.60
2023-03-18T04:08:14.450Z,11.50
2023-03-18T04:10:41.061Z,11.50
2023-03-18T04:13:08.783Z,11.50
2023-03-18T04:15:35.386Z,11.50
2023-03-18T04:18:06.706Z,11.40
2023-03-18T04:20:35.575Z,11.40
2023-03-18T04:23:02.721Z,11.40
2023-03-18T04:25:30.044Z,11.40
2023-03-18T04:27:57.646Z,11.30
2023-03-18T04:30:25.457Z,11.30
2023-03-18T04:32:52.478Z,11.30
2023-03-18T04:35:19.674Z,11.30
2023-03-18T04:37:46.654Z,12.00
2023-03-18T04:40:13.443Z,11.20
2023-03-18T04:45:08.295Z,11.20
2023-03-18T04:47:35.947Z,11.20
2023-03-18T04:50:04.576Z,11.20
2023-03-18T04:52:31.395Z,11.10
2023-03-18T04:54:58.068Z,11.10
2023-03-18T04:57:25.126Z,11.00
2023-03-18T04:59:52.031Z,11.00
2023-03-18T05:02:19.392Z,11.00
2023-03-18T05:04:46.322Z,11.00
2023-03-18T05:07:15.377Z,10.90
2023-03-18T05:09:42.401Z,10.70
2023-03-18T05:12:15.865Z,10.90
2023-03-18T05:14:43.508Z,10.90
2023-03-18T05:17:15.615Z,10.90
2023-03-18T05:19:43.440Z,10.80
2023-03-18T05:22:11.524Z,10.80
2023-03-18T05:24:41.584Z,10.70
2023-03-18T05:27:08.413Z,10.70
2023-03-18T05:29:35.231Z,10.70
2023-03-18T05:32:02.746Z,10.70
2023-03-18T05:34:29.336Z,10.60
2023-03-18T05:36:57.790Z,10.60
2023-03-18T05:39:24.506Z,10.60
2023-03-18T05:41:51.245Z,10.60
2023-03-18T05:44:17.946Z,10.50
2023-03-18T05:46:44.701Z,10.50
2023-03-18T05:49:11.314Z,10.50
2023-03-18T05:51:38.052Z,10.40
2023-03-18T05:54:04.775Z,10.40
2023-03-18T05:56:32.668Z,10.40
2023-03-18T05:58:59.303Z,10.40
2023-03-18T06:01:26.202Z,10.40
2023-03-18T06:03:55.107Z,10.30
2023-03-18T06:06:21.777Z,10.30
2023-03-18T06:08:48.657Z,10.20
2023-03-18T06:11:15.382Z,10.50
2023-03-18T06:13:42.104Z,10.20
2023-03-18T06:16:08.905Z,10.20
2023-03-18T06:18:35.560Z,10.10
2023-03-18T06:21:02.161Z,10.10
2023-03-18T06:23:28.777Z,10.10
2023-03-18T06:25:55.488Z,10.10
2023-03-18T06:28:22.118Z,10.10
2023-03-18T06:30:48.824Z,10.00
2023-03-18T06:35:43.987Z,10.00
2023-03-18T06:38:14.505Z,10.00
2023-03-18T06:40:41.124Z,10.00
2023-03-18T06:43:07.759Z,9.90
2023-03-18T06:45:35.127Z,9.90
2023-03-18T06:48:01.879Z,9.90
2023-03-18T06:50:28.511Z,9.80
2023-03-18T06:52:55.141Z,9.80
2023-03-18T06:55:21.785Z,9.80
2023-03-18T06:57:48.486Z,9.80
2023-03-18T07:00:16.259Z,9.70
2023-03-18T07:02:43.358Z,9.80
2023-03-18T07:05:10.262Z,10.10
2023-03-18T07:07:39.753Z,9.70
2023-03-18T07:10:08.809Z,9.70
2023-03-18T07:12:37.636Z,9.70
2023-03-18T07:15:04.562Z,9.70
2023-03-18T07:17:31.667Z,9.70
2023-03-18T07:19:58.723Z,9.50
2023-03-18T07:22:25.410Z,9.60
2023-03-18T07:24:52.349Z,9.60
2023-03-18T07:27:18.965Z,9.60
2023-03-18T07:29:48.237Z,9.60
2023-03-18T07:32:14.873Z,9.60
2023-03-18T07:37:09.215Z,9.60
2023-03-18T07:42:04.078Z,9.50
2023-03-18T07:44:31.362Z,9.50
2023-03-18T07:46:58.274Z,9.60
2023-03-18T07:51:52.287Z,9.60
2023-03-18T07:54:20.047Z,9.50
2023-03-18T07:59:13.755Z,9.50
2023-03-18T08:01:40.679Z,9.50
2023-03-18T08:04:07.831Z,9.60
2023-03-18T08:06:34.937Z,9.60
2023-03-18T08:09:02.096Z,9.70
2023-03-18T08:11:28.739Z,9.70
2023-03-18T08:13:55.434Z,9.90
2023-03-18T08:16:23.448Z,10.00
2023-03-18T08:18:50.641Z,10.10
2023-03-18T08:21:17.561Z,10.20
2023-03-18T08:23:44.634Z,10.30
2023-03-18T08:26:11.931Z,11.60
2023-03-18T08:28:39.536Z,10.50
2023-03-18T08:31:06.172Z,10.60
2023-03-18T08:33:32.805Z,10.60
2023-03-18T08:35:59.688Z,10.70
2023-03-18T08:38:26.600Z,10.70
2023-03-18T08:40:53.243Z,10.80
2023-03-18T08:43:22.222Z,10.90
2023-03-18T08:45:53.800Z,11.00
2023-03-18T08:48:21.148Z,11.00
2023-03-18T08:50:48.369Z,11.10
2023-03-18T08:53:15.354Z,11.20
2023-03-18T08:55:42.221Z,11.40
2023-03-18T08:58:08.964Z,11.40
2023-03-18T09:00:37.972Z,11.60
2023-03-18T09:03:05.026Z,11.70
2023-03-18T09:05:32.846Z,11.70
2023-03-18T09:08:00.353Z,11.90
2023-03-18T09:10:27.842Z,12.00
2023-03-18T09:12:54.478Z,12.10
2023-03-18T09:15:21.155Z,12.20
2023-03-18T09:18:03.794Z,12.30
2023-03-18T09:20:35.336Z,12.40
2023-03-18T09:23:02.403Z,12.60
2023-03-18T09:25:29.121Z,12.60
2023-03-18T09:27:56.235Z,12.80
2023-03-18T09:30:22.868Z,12.90
2023-03-18T09:32:49.659Z,13.10
2023-03-18T09:35:16.584Z,13.20
2023-03-18T09:37:44.620Z,13.30
2023-03-18T09:40:33.329Z,13.40
2023-03-18T09:43:34.832Z,13.50
2023-03-18T09:46:28.101Z,13.70
2023-03-18T09:49:09.954Z,13.80
2023-03-18T09:51:50.584Z,13.90
2023-03-18T09:54:34.693Z,14.00
2023-03-18T09:57:03.271Z,14.20
2023-03-18T09:59:39.203Z,14.30
2023-03-18T10:02:32.678Z,14.40
2023-03-18T10:05:04.349Z,14.50
2023-03-18T10:07:37.840Z,14.70
2023-03-18T10:10:27.096Z,14.70
2023-03-18T10:13:13.265Z,14.90
2023-03-18T10:15:45.585Z,15.00
2023-03-18T10:18:34.637Z,15.10
2023-03-18T10:21:12.014Z,15.20
2023-03-18T10:23:41.801Z,15.30
2023-03-18T10:26:17.459Z,15.40
2023-03-18T10:28:57.373Z,15.50
2023-03-18T10:32:03.028Z,15.60
2023-03-18T10:34:52.288Z,15.70
2023-03-18T10:37:27.364Z,15.80
2023-03-18T10:40:15.120Z,15.90
2023-03-18T10:42:42.729Z,16.00
2023-03-18T10:45:24.674Z,16.10
2023-03-18T10:48:10.795Z,16.20
2023-03-18T10:50:42.529Z,16.30
2023-03-18T10:53:19.984Z,16.40
2023-03-18T10:56:06.596Z,16.50
2023-03-18T10:58:33.652Z,16.60
2023-03-18T11:01:00.529Z,16.70
2023-03-18T11:03:30.554Z,16.80
2023-03-18T11:05:59.625Z,16.90
2023-03-18T11:08:29.360Z,17.00
2023-03-18T11:10:56.044Z,17.10
2023-03-18T11:13:23.433Z,17.20
2023-03-18T11:15:53.343Z,17.30
2023-03-18T11:18:23.787Z,17.30
2023-03-18T11:21:01.489Z,17.40
2023-03-18T11:23:56.038Z,17.50
2023-03-18T11:26:24.434Z,17.50
2023-03-18T11:28:56.615Z,17.60
2023-03-18T11:31:23.400Z,17.60
2023-03-18T11:33:50.431Z,17.60
2023-03-18T11:36:19.518Z,17.70
2023-03-18T11:38:57.099Z,17.70
2023-03-18T11:41:25.415Z,17.80
2023-03-18T11:44:02.665Z,17.90
2023-03-18T11:46:39.609Z,17.90
2023-03-18T11:49:09.654Z,18.00
2023-03-18T11:52:04.470Z,18.10
2023-03-18T11:54:31.127Z,18.10
2023-03-18T11:57:02.941Z,18.10
2023-03-18T11:59:44.861Z,18.30
2023-03-18T12:02:27.226Z,18.30
2023-03-18T12:05:21.780Z,18.30
2023-03-18T12:08:01.486Z,18.30
2023-03-18T12:10:37.658Z,18.40
2023-03-18T12:13:17.947Z,18.50
2023-03-18T12:16:12.554Z,18.50
2023-03-18T12:19:16.536Z,18.60
2023-03-18T12:22:02.048Z,18.70
2023-03-18T12:24:54.512Z,18.70
2023-03-18T12:27:36.842Z,18.80
2023-03-18T12:30:16.590Z,18.90
2023-03-18T12:33:10.707Z,18.90
2023-03-18T12:35:40.338Z,19.10
2023-03-18T12:38:35.862Z,19.10
2023-03-18T12:41:07.947Z,19.20
2023-03-18T12:43:43.800Z,19.30
2023-03-18T12:46:32.964Z,19.40
2023-03-18T12:49:19.793Z,20.00
2023-03-18T12:51:51.113Z,19.70
2023-03-18T12:54:25.940Z,19.60
2023-03-18T12:57:01.803Z,19.70
2023-03-18T12:59:40.520Z,19.70
2023-03-18T13:02:31.593Z,19.80
2023-03-18T13:05:00.835Z,19.90
2023-03-18T13:07:47.110Z,20.00
2023-03-18T13:10:23.365Z,20.10
2023-03-18T13:12:54.762Z,20.30
2023-03-18T13:15:25.822Z,20.30
2023-03-18T13:17:56.321Z,20.50
2023-03-18T13:20:29.199Z,20.50
2023-03-18T13:23:29.367Z,20.60
2023-03-18T13:26:07.505Z,20.70
2023-03-18T13:28:52.404Z,20.90
2023-03-18T13:31:31.427Z,20.90
2023-03-18T13:34:04.043Z,20.90
2023-03-18T13:37:08.583Z,21.20
2023-03-18T13:39:46.161Z,21.30
2023-03-18T13:42:18.882Z,21.40
2023-03-18T13:44:58.767Z,21.60
2023-03-18T13:47:30.317Z,21.60
2023-03-18T13:50:04.902Z,21.70
2023-03-18T13:52:31.505Z,21.80
2023-03-18T13:55:04.854Z,21.90
2023-03-18T13:57:35.846Z,22.00
2023-03-18T14:00:25.325Z,22.00
2023-03-18T14:03:21.771Z,22.10
2023-03-18T14:06:19.091Z,22.10
2023-03-18T14:08:51.208Z,22.20
2023-03-18T14:11:19.675Z,22.30
2023-03-18T14:14:04.046Z,22.30
2023-03-18T14:16:51.464Z,22.30
2023-03-18T14:19:32.501Z,22.40
2023-03-18T14:22:14.848Z,22.50
2023-03-18T14:24:43.944Z,22.60
2023-03-18T14:27:17.417Z,22.40
2023-03-18T14:29:47.217Z,22.60
2023-03-18T14:32:22.789Z,22.60
2023-03-18T14:34:58.818Z,22.70
2023-03-18T14:37:31.333Z,22.70
2023-03-18T14:40:03.995Z,22.70
2023-03-18T14:42:43.823Z,22.70
2023-03-18T14:45:20.724Z,22.60
2023-03-18T14:48:04.248Z,22.70
2023-03-18T14:50:49.581Z,22.70
2023-03-18T14:53:53.040Z,22.70
2023-03-18T14:56:20.791Z,22.80
2023-03-18T14:58:47.881Z,22.80
2023-03-18T15:01:17.730Z,22.70
2023-03-18T15:03:47.478Z,22.80
2023-03-18T15:06:19.547Z,22.80
2023-03-18T15:08:53.405Z,22.80
2023-03-18T15:11:21.038Z,22.80
2023-03-18T15:13:47.797Z,22.80
2023-03-18T15:16:18.764Z,22.80
2023-03-18T15:18:45.662Z,22.80
2023-03-18T15:21:22.430Z,22.80
2023-03-18T15:23:54.031Z,22.70
2023-03-18T15:26:28.688Z,22.80
2023-03-18T15:28:58.390Z,22.70
2023-03-18T15:31:29.906Z,22.70
2023-03-18T15:34:11.368Z,22.70
2023-03-18T15:36:44.005Z,22.70
2023-03-18T15:39:26.534Z,22.70
2023-03-18T15:42:00.044Z,22.70
2023-03-18T15:44:30.315Z,22.60
2023-03-18T15:47:19.647Z,22.60
2023-03-18T15:49:53.497Z,22.60
2023-03-18T15:52:25.082Z,22.60
2023-03-18T15:54:52.023Z,22.60
2023-03-18T15:57:30.608Z,22.60
2023-03-18T15:59:57.318Z,22.60
2023-03-18T16:02:24.237Z,22.60
2023-03-18T16:04:50.876Z,22.60
2023-03-18T16:07:22.089Z,22.60
2023-03-18T16:12:23.305Z,22.60
2023-03-18T16:14:51.446Z,22.50
2023-03-18T16:17:21.762Z,22.50
2023-03-18T16:24:51.022Z,22.50
2023-03-18T16:27:29.196Z,22.40
2023-03-18T16:29:56.068Z,22.30
2023-03-18T16:32:23.033Z,24.10
2023-03-18T16:34:49.799Z,22.30
2023-03-18T16:37:21.684Z,22.30
2023-03-18T16:39:48.437Z,22.40
2023-03-18T16:42:15.280Z,22.30
2023-03-18T16:44:41.948Z,22.20
2023-03-18T16:47:23.150Z,22.20
2023-03-18T16:49:50.613Z,22.10
2023-03-18T16:52:18.108Z,22.00
2023-03-18T16:54:45.011Z,22.00
2023-03-18T16:57:19.492Z,22.00
2023-03-18T16:59:52.741Z,21.90
2023-03-18T17:02:32.614Z,21.80
2023-03-18T17:04:59.262Z,21.80
2023-03-18T17:07:26.514Z,21.80
2023-03-18T17:09:53.557Z,21.80
2023-03-18T17:12:21.492Z,21.70
2023-03-18T17:14:53.249Z,21.60
2023-03-18T17:17:30.397Z,21.60
2023-03-18T17:19:57.674Z,22.60
2023-03-18T17:22:27.613Z,21.50
2023-03-18T17:24:54.586Z,21.50
2023-03-18T17:27:31.570Z,21.50
2023-03-18T17:29:58.258Z,21.40
2023-03-18T17:32:26.004Z,21.30
2023-03-18T17:34:53.841Z,21.30
2023-03-18T17:37:21.519Z,21.20
2023-03-18T17:39:48.182Z,21.20
2023-03-18T17:42:34.003Z,21.10
2023-03-18T17:45:34.396Z,21.00
2023-03-18T17:48:11.084Z,21.00
2023-03-18T17:50:37.831Z,20.70
2023-03-18T17:53:04.526Z,20.80
2023-03-18T17:55:31.492Z,20.80
2023-03-18T17:57:58.250Z,20.70
2023-03-18T18:00:26.362Z,20.70
2023-03-18T18:02:58.603Z,20.50
2023-03-18T18:05:25.277Z,20.50
2023-03-18T18:07:52.976Z,20.40
2023-03-18T18:10:20.734Z,20.40
2023-03-18T18:12:49.860Z,20.30
2023-03-18T18:15:18.331Z,20.30
2023-03-18T18:17:46.243Z,20.30
2023-03-18T18:20:15.322Z,20.20
2023-03-18T18:22:45.034Z,20.10
2023-03-18T18:25:17.393Z,20.10
2023-03-18T18:27:44.075Z,20.10
2023-03-18T18:30:15.456Z,20.00
2023-03-18T18:32:42.212Z,19.90
2023-03-18T18:35:13.575Z,19.90
2023-03-18T18:37:40.253Z,19.90
2023-03-18T18:40:07.375Z,21.30
2023-03-18T18:42:34.001Z,19.70
2023-03-18T18:45:01.286Z,19.70
2023-03-18T18:47:28.125Z,19.60
2023-03-18T18:49:54.713Z,19.60
2023-03-18T18:52:21.339Z,19.50
2023-03-18T18:54:47.937Z,19.50
2023-03-18T18:57:25.410Z,19.40
2023-03-18T18:59:52.144Z,19.30
2023-03-18T19:02:36.073Z,19.30
2023-03-18T19:05:04.672Z,19.20
2023-03-18T19:07:33.546Z,19.20
2023-03-18T19:10:00.243Z,19.10
2023-03-18T19:12:27.566Z,19.00
2023-03-18T19:14:54.563Z,19.00
2023-03-18T19:17:22.164Z,19.00
2023-03-18T19:19:50.534Z,19.00
2023-03-18T19:22:18.677Z,18.80
2023-03-18T19:24:48.258Z,18.80
2023-03-18T19:27:24.788Z,18.80
2023-03-18T19:29:53.154Z,18.80
2023-03-18T19:32:22.175Z,18.70
2023-03-18T19:34:51.454Z,18.60
2023-03-18T19:37:27.619Z,18.60
2023-03-18T19:39:55.155Z,18.50
2023-03-18T19:42:21.787Z,18.40
2023-03-18T19:44:48.748Z,18.40
2023-03-18T19:47:19.892Z,18.40
2023-03-18T19:49:46.558Z,18.40
2023-03-18T19:52:27.338Z,18.30
2023-03-18T19:54:54.647Z,18.20
2023-03-18T19:57:31.249Z,18.20
2023-03-18T19:59:58.770Z,18.20
2023-03-18T20:02:26.692Z,18.10
2023-03-18T20:04:55.424Z,18.00
2023-03-18T20:07:23.954Z,18.00
2023-03-18T20:09:51.284Z,18.00
2023-03-18T20:12:56.426Z,17.90
2023-03-18T20:15:29.007Z,17.90
2023-03-18T20:17:58.057Z,17.90
2023-03-18T20:20:30.386Z,17.80
2023-03-18T20:23:01.192Z,17.70
2023-03-18T20:25:35.922Z,17.70
2023-03-18T20:28:05.980Z,17.70
2023-03-18T20:30:35.262Z,17.60
2023-03-18T20:33:05.311Z,17.60
2023-03-18T20:35:43.373Z,17.50
2023-03-18T20:38:16.087Z,17.50
2023-03-18T20:40:46.212Z,17.50
2023-03-18T20:43:20.606Z,17.40
2023-03-18T20:45:47.392Z,17.40
2023-03-18T20:48:14.292Z,17.40
2023-03-18T20:50:41.620Z,17.40
2023-03-18T20:53:15.242Z,17.30
2023-03-18T20:55:42.109Z,17.30
2023-03-18T20:58:17.995Z,17.20
2023-03-18T21:00:45.477Z,17.20
2023-03-18T21:03:33.487Z,17.20
2023-03-18T21:06:03.408Z,17.10
2023-03-18T21:08:31.531Z,17.10
2023-03-18T21:11:01.684Z,17.00
2023-03-18T21:13:30.276Z,17.00
2023-03-18T21:15:57.997Z,17.90
2023-03-18T21:18:24.633Z,16.90
2023-03-18T21:20:51.299Z,16.90
2023-03-18T21:23:21.707Z,16.80
2023-03-18T21:25:49.090Z,16.80
2023-03-18T21:28:16.850Z,16.80
2023-03-18T21:30:44.440Z,16.80
2023-03-18T21:33:27.399Z,16.70
2023-03-18T21:35:58.139Z,16.70
2023-03-18T21:38:26.242Z,16.60
2023-03-18T21:40:53.794Z,16.60
2023-03-18T21:43:28.946Z,16.60
2023-03-18T21:45:57.031Z,16.60
2023-03-18T21:48:26.343Z,16.50
2023-03-18T21:50:54.133Z,16.50
2023-03-18T21:53:24.740Z,16.40
2023-03-18T21:55:52.179Z,16.40
2023-03-18T21:58:20.828Z,16.40
2023-03-18T22:00:51.128Z,16.30
2023-03-18T22:03:19.882Z,16.30
2023-03-18T22:05:48.564Z,16.30
2023-03-18T22:08:15.273Z,16.20
2023-03-18T22:10:42.115Z,16.20
2023-03-18T22:13:19.134Z,16.20
2023-03-18T22:15:49.923Z,16.10
2023-03-18T22:18:17.140Z,16.10
2023-03-18T22:20:46.157Z,16.10
2023-03-18T22:23:14.539Z,16.00
2023-03-18T22:25:41.796Z,16.00
2023-03-18T22:28:08.513Z,16.00
2023-03-18T22:30:35.390Z,15.90
2023-03-18T22:33:04.095Z,15.70
2023-03-18T22:35:31.297Z,15.90
2023-03-18T22:37:58.207Z,15.80
2023-03-18T22:40:27.318Z,15.80
2023-03-18T22:42:56.554Z,15.80
2023-03-18T22:45:30.279Z,15.70
2023-03-18T22:47:58.834Z,15.70
2023-03-18T22:50:27.243Z,15.60
2023-03-18T22:52:59.343Z,15.60
2023-03-18T22:55:28.256Z,15.60
2023-03-18T22:57:54.935Z,15.50
2023-03-18T23:00:35.901Z,15.50
2023-03-18T23:03:02.739Z,15.50
2023-03-18T23:05:29.584Z,15.40
2023-03-18T23:07:56.231Z,15.40
2023-03-18T23:10:23.377Z,15.40
2023-03-18T23:12:50.602Z,15.30
2023-03-18T23:15:19.624Z,15.30
2023-03-18T23:17:46.445Z,15.30
2023-03-18T23:20:15.696Z,15.20
2023-03-18T23:22:42.972Z,15.20
2023-03-18T23:25:16.480Z,15.20
2023-03-18T23:27:44.092Z,15.10
2023-03-18T23:30:12.459Z,15.10
2023-03-18T23:32:40.376Z,15.10
2023-03-18T23:35:08.651Z,15.10
2023-03-18T23:37:35.414Z,15.00
2023-03-18T23:40:02.192Z,15.00
2023-03-18T23:42:28.820Z,14.90
2023-03-18T23:44:55.487Z,14.90
2023-03-18T23:47:22.213Z,14.90
2023-03-18T23:49:48.864Z,14.80
2023-03-18T23:52:16.380Z,14.90
2023-03-18T23:54:43.148Z,14.80
2023-03-18T23:57:10.747Z,14.70
2023-03-18T23:59:38.047Z,14.70
